Delaware — WDJ3161 — position and weather

sailwx.info

Track history (hours):
 
Tides and Currents Weather Stations Pressure Air Temp Water Temp Dewpoint Dewpoint Depression Visibility Wind Speed Wind Dir Waves Ship Positions

Delaware

Owner: Vane Line Bunkering, Inc., Philadelphia, PA. More information available from US FCC via Universal Licensing System and Coast Guard Vessel Documentation Center.

Last reported at 2017-Dec-16 08:29 UTC. Time now 2017-Dec-16 08:52 UTC.
Position N 40°48' W 073°54'.

Length 32 m.

Type: Tug. MMSI: 367303000.

Date/timePositionNaut miles runAvg speedWind from/ knotsBaromVisibWave heightAir tempDewpointWater temp
2017-Dec-16 08:29N 40°48' W 073°54'0 0.0
2017-Dec-16 07:58N 40°48' W 073°54'1 1.1
2017-Dec-16 07:30N 40°48' W 073°55'3 6.0
2017-Dec-16 07:00N 40°45' W 073°57'3 5.9
2017-Dec-16 06:30N 40°43' W 073°59'3 5.4
2017-Dec-16 06:00N 40°41' W 074°01'2 4.7
2017-Dec-16 05:30N 40°39' W 074°04'4 7.9
2017-Dec-16 05:01N 40°39' W 074°09'4 7.3
2017-Dec-16 04:30N 40°42' W 074°07'0 0.7
2017-Dec-16 04:00N 40°42' W 074°07'0 0.1
2017-Dec-16 03:30N 40°42' W 074°07'0 0.0
2017-Dec-16 03:00N 40°42' W 074°07'0 0.0
2017-Dec-16 02:30N 40°42' W 074°07'0 0.0
2017-Dec-16 02:00N 40°42' W 074°07'0 0.0
2017-Dec-16 01:30N 40°42' W 074°07'0 0.0
2017-Dec-16 01:00N 40°42' W 074°07'0 0.0
2017-Dec-16 00:30N 40°42' W 074°07'0 0.0
2017-Dec-16 00:00N 40°42' W 074°07'0 0.0
2017-Dec-15 23:30N 40°42' W 074°07'0 0.0
2017-Dec-15 23:00N 40°42' W 074°07'0 0.0
2017-Dec-15 22:30N 40°42' W 074°07'0 0.0
2017-Dec-15 22:00N 40°42' W 074°07'0 0.0
2017-Dec-15 21:30N 40°42' W 074°07'0 0.0
2017-Dec-15 21:00N 40°42' W 074°07'0 0.0
2017-Dec-15 20:30N 40°42' W 074°07'0 0.0
2017-Dec-15 20:00N 40°42' W 074°07'0 0.0
2017-Dec-15 19:30N 40°42' W 074°07'0 0.0
2017-Dec-15 19:00N 40°42' W 074°07'0 0.0
2017-Dec-15 18:30N 40°42' W 074°07'0 0.0
2017-Dec-15 18:00N 40°42' W 074°07'0 0.0
2017-Dec-15 17:30N 40°42' W 074°07'0 0.0
2017-Dec-15 17:00N 40°42' W 074°07'0 0.0
2017-Dec-15 16:30N 40°42' W 074°07'0 0.0
2017-Dec-15 16:00N 40°42' W 074°07'0 0.0
2017-Dec-15 15:30N 40°42' W 074°07'0 0.0
2017-Dec-15 15:00N 40°42' W 074°07'0 0.0
2017-Dec-15 14:30N 40°42' W 074°07'0 0.0
2017-Dec-15 14:00N 40°42' W 074°07'0 0.0
2017-Dec-15 13:30N 40°42' W 074°07'0 0.0
2017-Dec-15 13:00N 40°42' W 074°07'0 0.0
2017-Dec-15 12:30N 40°42' W 074°07'0 0.0
2017-Dec-15 12:00N 40°42' W 074°07'0 0.0
2017-Dec-15 11:30N 40°42' W 074°07'0 0.0
2017-Dec-15 11:00N 40°42' W 074°07'0 0.7
2017-Dec-15 10:30N 40°42' W 074°07'3 6.5
2017-Dec-15 10:00N 40°39' W 074°09'3 6.1
2017-Dec-15 09:30N 40°39' W 074°05'3 5.0
2017-Dec-15 09:00N 40°40' W 074°02'0 0.1
2017-Dec-15 08:30N 40°40' W 074°02'0 0.1
2017-Dec-15 08:00N 40°40' W 074°02'0 0.0
2017-Dec-15 07:30N 40°40' W 074°02'0 0.0
2017-Dec-15 07:00N 40°40' W 074°02'0 0.0
2017-Dec-15 06:30N 40°40' W 074°02'0 0.2
2017-Dec-15 06:01N 40°40' W 074°02'1 1.8
2017-Dec-15 05:30N 40°41' W 074°01'4 7.1
2017-Dec-15 05:00N 40°44' W 073°58'4 8.6
2017-Dec-15 04:30N 40°47' W 073°55'1 2.0
2017-Dec-15 04:00N 40°48' W 073°54'0 0.0
2017-Dec-15 02:30N 40°48' W 073°54'0 0.0
2017-Dec-15 00:50N 40°48' W 073°54'0 0.0
2017-Dec-15 00:26N 40°48' W 073°54'0 0.0
2017-Dec-14 18:31N 40°48' W 073°54'0 0.0
2017-Dec-14 18:00N 40°48' W 073°54'0 0.0
2017-Dec-14 17:30N 40°48' W 073°54'0 0.0
2017-Dec-14 17:00N 40°48' W 073°54'0 0.0
2017-Dec-14 16:30N 40°48' W 073°54'0 0.0
2017-Dec-14 16:00N 40°48' W 073°54'0 0.0
2017-Dec-14 14:59N 40°48' W 073°54'0 0.0
2017-Dec-14 14:30N 40°48' W 073°54'0 0.0
2017-Dec-14 14:00N 40°48' W 073°54'0 0.0
2017-Dec-14 13:30N 40°48' W 073°54'0 0.0
2017-Dec-14 12:59N 40°48' W 073°54'0 0.0
2017-Dec-14 12:30N 40°48' W 073°54'0 0.6
2017-Dec-14 12:00N 40°48' W 073°55'3 6.5
2017-Dec-14 11:30N 40°45' W 073°57'3 6.3
2017-Dec-14 11:00N 40°42' W 073°59'4 7.3
2017-Dec-14 10:30N 40°40' W 074°03'2 4.1
2017-Dec-14 10:00N 40°39' W 074°05'0 0.0
2017-Dec-14 09:30N 40°39' W 074°05'0 0.0
2017-Dec-14 09:00N 40°39' W 074°05'0 0.0
2017-Dec-14 08:30N 40°39' W 074°05'0 0.0
2017-Dec-14 08:00N 40°39' W 074°05'0 0.0
2017-Dec-14 07:30N 40°39' W 074°05'0 0.0
2017-Dec-14 07:00N 40°39' W 074°05'0 0.0
2017-Dec-14 06:30N 40°39' W 074°05'0 0.0
2017-Dec-14 06:00N 40°39' W 074°05'0 0.0
2017-Dec-14 05:30N 40°39' W 074°05'0 0.0
2017-Dec-14 05:00N 40°39' W 074°05'0 0.0
2017-Dec-14 04:30N 40°39' W 074°05'0 0.0
2017-Dec-14 04:00N 40°39' W 074°05'0 0.0
2017-Dec-14 03:30N 40°39' W 074°05'0 0.0
2017-Dec-14 03:00N 40°39' W 074°05'0 0.0
2017-Dec-14 02:30N 40°39' W 074°05'0 0.0
2017-Dec-14 02:00N 40°39' W 074°05'0 0.0
2017-Dec-14 01:30N 40°39' W 074°05'0 0.0
2017-Dec-14 01:00N 40°39' W 074°05'0 0.0
2017-Dec-14 00:30N 40°39' W 074°05'0 0.0
2017-Dec-14 00:00N 40°39' W 074°05'0 0.0
2017-Dec-13 23:30N 40°39' W 074°05'0 0.0
2017-Dec-13 23:00N 40°39' W 074°05'0 0.0
2017-Dec-13 22:30N 40°39' W 074°05'0 0.0
2017-Dec-13 22:00N 40°39' W 074°05'0 0.0
2017-Dec-13 21:30N 40°39' W 074°05'0 0.0
2017-Dec-13 21:00N 40°39' W 074°05'0 0.0
2017-Dec-13 20:30N 40°39' W 074°05'0 0.0
2017-Dec-13 20:00N 40°39' W 074°05'0 0.0
2017-Dec-13 19:30N 40°39' W 074°05'0 0.0
2017-Dec-13 19:00N 40°39' W 074°05'0 0.0
2017-Dec-13 18:30N 40°39' W 074°05'2 3.8
2017-Dec-13 18:00N 40°39' W 074°03'2 4.4
2017-Dec-13 17:31N 40°40' W 074°00'0 0.0
2017-Dec-13 17:00N 40°40' W 074°00'0 0.0
2017-Dec-13 16:30N 40°40' W 074°00'0 0.0
2017-Dec-13 16:00N 40°40' W 074°00'0 0.0
2017-Dec-13 15:30N 40°40' W 074°00'0 0.0
2017-Dec-13 15:00N 40°40' W 074°00'0 0.0
2017-Dec-13 14:30N 40°40' W 074°00'0 0.0
2017-Dec-13 14:00N 40°40' W 074°00'1 2.6
2017-Dec-13 13:31N 40°41' W 074°00'0 0.4
2017-Dec-13 13:00N 40°41' W 074°00'0 0.0
2017-Dec-13 12:30N 40°41' W 074°00'0 0.0
2017-Dec-13 12:00N 40°41' W 074°00'0 0.0
2017-Dec-13 11:30N 40°41' W 074°00'0 0.1
2017-Dec-13 11:01N 40°41' W 074°00'3 6.7
2017-Dec-13 10:30N 40°40' W 074°04'1 1.9
2017-Dec-13 10:00N 40°39' W 074°05'0 0.0
2017-Dec-13 09:30N 40°39' W 074°05'0 0.8
2017-Dec-13 09:00N 40°39' W 074°05'2 3.5
2017-Dec-13 08:30N 40°39' W 074°02'0 0.0
2017-Dec-13 08:00N 40°39' W 074°02'0 0.0
2017-Dec-13 07:30N 40°39' W 074°02'0 0.0
2017-Dec-13 07:00N 40°39' W 074°02'0 0.0
2017-Dec-13 06:30N 40°39' W 074°02'0 0.0
2017-Dec-13 06:00N 40°39' W 074°02'0 0.0
2017-Dec-13 05:30N 40°39' W 074°02'0 0.2
2017-Dec-13 05:00N 40°39' W 074°02'3 6.0
2017-Dec-13 04:30N 40°42' W 074°00'5 9.5
2017-Dec-13 04:00N 40°46' W 073°57'3 5.7
2017-Dec-13 03:30N 40°48' W 073°54'0 0.0
2017-Dec-13 03:00N 40°48' W 073°54'0 0.1
2017-Dec-13 02:30N 40°48' W 073°54'0 0.0
2017-Dec-13 02:00N 40°48' W 073°54'0 0.0
2017-Dec-13 01:30N 40°48' W 073°54'0 0.0
2017-Dec-13 01:00N 40°48' W 073°54'0 0.0
2017-Dec-13 00:30N 40°48' W 073°54'0 0.0
2017-Dec-12 23:59N 40°48' W 073°54'0 0.0
2017-Dec-12 23:30N 40°48' W 073°54'0 0.0
2017-Dec-12 22:59N 40°48' W 073°54'0 0.0
2017-Dec-12 22:25N 40°48' W 073°54'0 0.0
2017-Dec-12 21:59N 40°48' W 073°54'0 0.0
2017-Dec-12 21:30N 40°48' W 073°54'0 0.0
2017-Dec-12 21:00N 40°48' W 073°54'0 0.0
2017-Dec-12 20:24N 40°48' W 073°54'2 3.5
2017-Dec-12 19:56N 40°50' W 073°54'2 1.2
2017-Dec-12 18:31N 40°48' W 073°54'0 0.0
2017-Dec-12 18:30N 40°48' W 073°54'0 0.0
2017-Dec-12 18:00N 40°48' W 073°54'0 0.0
2017-Dec-12 17:25N 40°48' W 073°54'0 0.0
2017-Dec-12 16:45N 40°48' W 073°54'1 4.8
2017-Dec-12 16:29N 40°47' W 073°55'3 6.6
2017-Dec-12 16:00N 40°45' W 073°58'3 5.4
2017-Dec-12 15:30N 40°42' W 073°60'3 6.1
2017-Dec-12 15:00N 40°40' W 074°02'3 6.2
2017-Dec-12 14:30N 40°39' W 074°06'0 0.8
2017-Dec-12 14:00N 40°39' W 074°07'0 0.0
2017-Dec-12 13:30N 40°39' W 074°07'0 0.0
2017-Dec-12 13:00N 40°39' W 074°07'0 0.0
2017-Dec-12 12:30N 40°39' W 074°07'0 0.0
2017-Dec-12 12:00N 40°39' W 074°07'0 0.0
2017-Dec-12 11:30N 40°39' W 074°07'0 0.0
2017-Dec-12 11:00N 40°39' W 074°07'0 0.0
2017-Dec-12 10:30N 40°39' W 074°07'0 0.0
2017-Dec-12 10:00N 40°39' W 074°07'0 0.0
2017-Dec-12 09:30N 40°39' W 074°07'0 0.0
2017-Dec-12 09:00N 40°39' W 074°07'0 0.0
2017-Dec-12 08:30N 40°39' W 074°07'0 0.0
2017-Dec-12 08:00N 40°39' W 074°07'0 0.0
2017-Dec-12 07:30N 40°39' W 074°07'0 0.0
2017-Dec-12 07:00N 40°39' W 074°07'0 0.0
2017-Dec-12 06:30N 40°39' W 074°07'0 0.0
2017-Dec-12 06:00N 40°39' W 074°07'0 0.0
2017-Dec-12 05:30N 40°39' W 074°07'0 0.0
2017-Dec-12 05:00N 40°39' W 074°07'0 0.0
2017-Dec-12 04:30N 40°39' W 074°07'0 0.0
2017-Dec-12 04:00N 40°39' W 074°07'0 0.0
2017-Dec-12 03:30N 40°39' W 074°07'0 0.0
2017-Dec-12 03:00N 40°39' W 074°07'0 0.0
2017-Dec-12 02:30N 40°39' W 074°07'0 0.0
2017-Dec-12 02:00N 40°39' W 074°07'0 0.0
2017-Dec-12 01:30N 40°39' W 074°07'0 0.0
2017-Dec-12 01:00N 40°39' W 074°07'0 0.0
2017-Dec-12 00:30N 40°39' W 074°07'0 0.0
2017-Dec-12 00:00N 40°39' W 074°07'0 0.0
2017-Dec-11 23:30N 40°39' W 074°07'0 0.0
2017-Dec-11 23:00N 40°39' W 074°07'0 0.0
2017-Dec-11 22:30N 40°39' W 074°07'0 0.0
2017-Dec-11 22:00N 40°39' W 074°07'0 0.0
2017-Dec-11 21:30N 40°39' W 074°07'0 0.0
2017-Dec-11 21:00N 40°39' W 074°07'0 0.0
2017-Dec-11 20:30N 40°39' W 074°07'0 0.0
2017-Dec-11 20:00N 40°39' W 074°07'0 0.0
2017-Dec-11 19:30N 40°39' W 074°07'3 5.7
2017-Dec-11 19:00N 40°39' W 074°03'0 0.1
2017-Dec-11 18:30N 40°39' W 074°03'0 0.0
2017-Dec-11 18:00N 40°39' W 074°03'0 0.0
2017-Dec-11 17:30N 40°39' W 074°03'1 2.6
2017-Dec-11 17:00N 40°40' W 074°03'4 7.4
2017-Dec-11 16:30N 40°43' W 073°59'4 7.7
2017-Dec-11 15:59N 40°46' W 073°57'2 5.0
2017-Dec-11 15:29N 40°48' W 073°54'0 0.0
2017-Dec-11 14:57N 40°48' W 073°54'0 0.0
2017-Dec-11 14:27N 40°48' W 073°54'0 0.0
2017-Dec-11 13:54N 40°48' W 073°54'0 0.0
2017-Dec-11 13:21N 40°48' W 073°54'0 0.0
2017-Dec-11 12:55N 40°48' W 073°54'0 0.0
2017-Dec-11 12:29N 40°48' W 073°54'0 0.0
2017-Dec-11 12:00N 40°48' W 073°54'0 0.0
2017-Dec-11 11:28N 40°48' W 073°54'0 0.0
2017-Dec-11 10:48N 40°48' W 073°54'0 0.0
2017-Dec-11 10:28N 40°48' W 073°54'0 0.0
2017-Dec-11 09:59N 40°48' W 073°54'0 0.0
2017-Dec-11 09:30N 40°48' W 073°54'0 0.0
2017-Dec-11 09:00N 40°48' W 073°54'0 0.0
2017-Dec-11 08:22N 40°48' W 073°54'0 0.0
2017-Dec-11 07:53N 40°48' W 073°54'0 0.0
2017-Dec-11 07:03N 40°48' W 073°54'0 0.0
2017-Dec-11 05:43N 40°48' W 073°54'0 0.0
2017-Dec-11 05:23N 40°48' W 073°54'0 0.0
2017-Dec-11 04:58N 40°48' W 073°54'0 0.0
2017-Dec-11 04:27N 40°48' W 073°54'0 0.0
2017-Dec-11 03:13N 40°48' W 073°54'0 1.5
2017-Dec-11 03:00N 40°48' W 073°55'3 6.7
2017-Dec-11 02:30N 40°45' W 073°58'3 6.0
2017-Dec-11 02:00N 40°42' W 073°59'3 5.9
2017-Dec-11 01:30N 40°41' W 074°02'3 5.1
2017-Dec-11 01:00N 40°39' W 074°05'3 5.7
2017-Dec-11 00:30N 40°39' W 074°08'3 5.2
2017-Dec-10 23:59N 40°38' W 074°12'2 4.1
2017-Dec-10 23:30N 40°36' W 074°12'0 0.2
2017-Dec-10 23:00N 40°36' W 074°12'0 0.0
2017-Dec-10 22:29N 40°36' W 074°12'0 0.0
2017-Dec-10 21:58N 40°36' W 074°12'0 0.0
2017-Dec-10 21:29N 40°36' W 074°12'0 0.0
2017-Dec-10 21:00N 40°36' W 074°12'0 0.0
2017-Dec-10 20:30N 40°36' W 074°12'0 0.0
2017-Dec-10 20:00N 40°36' W 074°12'0 0.0
2017-Dec-10 19:29N 40°36' W 074°12'0 0.0
2017-Dec-10 19:00N 40°36' W 074°12'0 0.0
2017-Dec-10 18:30N 40°36' W 074°12'0 0.0
2017-Dec-10 18:00N 40°36' W 074°12'3 6.4
2017-Dec-10 17:30N 40°39' W 074°10'4 9.3
2017-Dec-10 17:00N 40°39' W 074°04'3 6.1
2017-Dec-10 16:30N 40°40' W 074°00'0 0.0
2017-Dec-10 16:00N 40°40' W 074°00'0 0.0
2017-Dec-10 15:30N 40°40' W 074°00'0 0.0
2017-Dec-10 15:00N 40°40' W 074°00'0 0.0
2017-Dec-10 14:30N 40°40' W 074°00'0 0.0
2017-Dec-10 14:00N 40°40' W 074°00'0 0.0
2017-Dec-10 13:30N 40°40' W 074°00'0 0.0
2017-Dec-10 13:00N 40°40' W 074°00'0 0.0
2017-Dec-10 12:30N 40°40' W 074°00'0 0.0
2017-Dec-10 12:00N 40°40' W 074°00'0 0.0
2017-Dec-10 11:30N 40°40' W 074°00'0 0.0
2017-Dec-10 11:00N 40°40' W 074°00'0 0.0
2017-Dec-10 10:30N 40°40' W 074°00'2 4.7
2017-Dec-10 10:00N 40°39' W 074°03'5 9.4
2017-Dec-10 09:31N 40°39' W 074°09'3 6.1
2017-Dec-10 09:00N 40°37' W 074°12'1 1.2
2017-Dec-10 08:30N 40°36' W 074°12'1 2.7
2017-Dec-10 07:59N 40°38' W 074°12'3 6.6
2017-Dec-10 07:30N 40°39' W 074°08'3 6.7
2017-Dec-10 07:01N 40°39' W 074°04'4 8.1
2017-Dec-10 06:30N 40°42' W 074°00'3 5.8
2017-Dec-10 06:00N 40°45' W 073°58'3 5.5
2017-Dec-10 05:30N 40°47' W 073°56'3 5.1
2017-Dec-10 04:59N 40°48' W 073°53'3 7.0
2017-Dec-10 04:30N 40°48' W 073°48'3 6.8
2017-Dec-10 03:59N 40°51' W 073°45'49 2.4
2017-Dec-09 07:37N 41°12' W 072°47'1 8.7
2017-Dec-09 07:30N 41°12' W 072°45'4 9.2
2017-Dec-09 07:00N 41°11' W 072°39'5 9.3
2017-Dec-09 06:30N 41°11' W 072°33'510.1
2017-Dec-09 06:00N 41°12' W 072°27'510.4
2017-Dec-09 05:30N 41°13' W 072°20'510.4
2017-Dec-09 05:00N 41°15' W 072°13'610.0
2017-Dec-09 04:27N 41°16' W 072°06'2 0.2
2017-Dec-08 18:03N 41°15' W 072°09'1 6.6
2017-Dec-08 17:58N 41°15' W 072°09'3 5.9
2017-Dec-08 17:30N 41°14' W 072°13'3 5.5
2017-Dec-08 17:00N 41°13' W 072°16'3 5.3
2017-Dec-08 16:30N 41°12' W 072°19'3 5.2
2017-Dec-08 16:00N 41°12' W 072°23'3 5.4
2017-Dec-08 15:30N 41°11' W 072°26'3 6.8
2017-Dec-08 15:00N 41°10' W 072°31'4 7.9
2017-Dec-08 14:30N 41°10' W 072°36'4 8.4
2017-Dec-08 14:00N 41°10' W 072°41'53 2.9
2017-Dec-07 19:39N 40°50' W 073°46'1 5.2
2017-Dec-07 19:30N 40°49' W 073°47'3 5.1
2017-Dec-07 19:00N 40°48' W 073°50'3 6.4
2017-Dec-07 18:30N 40°48' W 073°54'3 5.3
2017-Dec-07 17:56N 40°46' W 073°57'2 5.3
2017-Dec-07 17:30N 40°44' W 073°58'4 7.6
2017-Dec-07 17:00N 40°41' W 074°01'4 7.8
2017-Dec-07 16:30N 40°39' W 074°06'1 2.0
2017-Dec-07 16:00N 40°39' W 074°07'0 0.0
2017-Dec-07 15:30N 40°39' W 074°07'0 0.1
2017-Dec-07 15:00N 40°39' W 074°07'0 0.1
2017-Dec-07 14:30N 40°39' W 074°07'2 4.2
2017-Dec-07 14:01N 40°39' W 074°04'3 6.6
2017-Dec-07 13:30N 40°40' W 074°00'0 0.0
2017-Dec-07 13:00N 40°40' W 074°00'0 0.0
2017-Dec-07 12:30N 40°40' W 074°00'0 0.0
2017-Dec-07 12:00N 40°40' W 074°00'0 0.0
2017-Dec-07 11:30N 40°40' W 074°00'0 0.0
2017-Dec-07 11:00N 40°40' W 074°00'0 0.0
2017-Dec-07 10:30N 40°40' W 074°00'0 0.0
2017-Dec-07 10:00N 40°40' W 074°00'0 0.0
2017-Dec-07 09:30N 40°40' W 074°00'0 0.0
2017-Dec-07 09:00N 40°40' W 074°00'0 0.0
2017-Dec-07 08:30N 40°40' W 074°00'0 0.0
2017-Dec-07 08:00N 40°40' W 074°00'0 0.0
2017-Dec-07 07:30N 40°40' W 074°00'0 0.0
2017-Dec-07 07:00N 40°40' W 074°00'0 0.0
2017-Dec-07 06:30N 40°40' W 074°00'0 0.0
2017-Dec-07 06:00N 40°40' W 074°00'0 0.0
2017-Dec-07 05:30N 40°40' W 074°00'0 0.0
2017-Dec-07 05:01N 40°40' W 074°00'4 7.3
2017-Dec-07 04:30N 40°39' W 074°05'2 3.4
2017-Dec-07 04:00N 40°39' W 074°07'0 0.6
2017-Dec-07 03:30N 40°39' W 074°07'3 6.8
2017-Dec-07 03:00N 40°40' W 074°03'3 5.5
2017-Dec-07 02:30N 40°43' W 074°01'4 7.5
2017-Dec-07 02:00N 40°47' W 073°60'3 7.2
2017-Dec-07 01:30N 40°50' W 073°58'4 7.3
2017-Dec-07 01:00N 40°53' W 073°56'4 7.2
2017-Dec-07 00:28N 40°57' W 073°54'  
Track history (hours):
 
Tides and Currents Weather Stations Pressure Air Temp Water Temp Dewpoint Dewpoint Depression Visibility Wind Speed Wind Dir Waves Ship Positions

Delaware

Owner: Vane Line Bunkering, Inc., Philadelphia, PA. More information available from US FCC via Universal Licensing System and Coast Guard Vessel Documentation Center.

Last reported at 2017-Dec-16 08:29 UTC. Time now 2017-Dec-16 08:52 UTC.
Position N 40°48' W 073°54'.

Length 32 m.

Type: Tug. MMSI: 367303000.

Date/timePositionNaut miles runAvg speedWind from/ knotsBaromVisibWave heightAir tempDewpointWater temp
2017-Dec-16 08:29N 40°48' W 073°54'0 0.0
2017-Dec-16 07:58N 40°48' W 073°54'1 1.1
2017-Dec-16 07:30N 40°48' W 073°55'3 6.0
2017-Dec-16 07:00N 40°45' W 073°57'3 5.9
2017-Dec-16 06:30N 40°43' W 073°59'3 5.4
2017-Dec-16 06:00N 40°41' W 074°01'2 4.7
2017-Dec-16 05:30N 40°39' W 074°04'4 7.9
2017-Dec-16 05:01N 40°39' W 074°09'4 7.3
2017-Dec-16 04:30N 40°42' W 074°07'0 0.7
2017-Dec-16 04:00N 40°42' W 074°07'0 0.1
2017-Dec-16 03:30N 40°42' W 074°07'0 0.0
2017-Dec-16 03:00N 40°42' W 074°07'0 0.0
2017-Dec-16 02:30N 40°42' W 074°07'0 0.0
2017-Dec-16 02:00N 40°42' W 074°07'0 0.0
2017-Dec-16 01:30N 40°42' W 074°07'0 0.0
2017-Dec-16 01:00N 40°42' W 074°07'0 0.0
2017-Dec-16 00:30N 40°42' W 074°07'0 0.0
2017-Dec-16 00:00N 40°42' W 074°07'0 0.0
2017-Dec-15 23:30N 40°42' W 074°07'0 0.0
2017-Dec-15 23:00N 40°42' W 074°07'0 0.0
2017-Dec-15 22:30N 40°42' W 074°07'0 0.0
2017-Dec-15 22:00N 40°42' W 074°07'0 0.0
2017-Dec-15 21:30N 40°42' W 074°07'0 0.0
2017-Dec-15 21:00N 40°42' W 074°07'0 0.0
2017-Dec-15 20:30N 40°42' W 074°07'0 0.0
2017-Dec-15 20:00N 40°42' W 074°07'0 0.0
2017-Dec-15 19:30N 40°42' W 074°07'0 0.0
2017-Dec-15 19:00N 40°42' W 074°07'0 0.0
2017-Dec-15 18:30N 40°42' W 074°07'0 0.0
2017-Dec-15 18:00N 40°42' W 074°07'0 0.0
2017-Dec-15 17:30N 40°42' W 074°07'0 0.0
2017-Dec-15 17:00N 40°42' W 074°07'0 0.0
2017-Dec-15 16:30N 40°42' W 074°07'0 0.0
2017-Dec-15 16:00N 40°42' W 074°07'0 0.0
2017-Dec-15 15:30N 40°42' W 074°07'0 0.0
2017-Dec-15 15:00N 40°42' W 074°07'0 0.0
2017-Dec-15 14:30N 40°42' W 074°07'0 0.0
2017-Dec-15 14:00N 40°42' W 074°07'0 0.0
2017-Dec-15 13:30N 40°42' W 074°07'0 0.0
2017-Dec-15 13:00N 40°42' W 074°07'0 0.0
2017-Dec-15 12:30N 40°42' W 074°07'0 0.0
2017-Dec-15 12:00N 40°42' W 074°07'0 0.0
2017-Dec-15 11:30N 40°42' W 074°07'0 0.0
2017-Dec-15 11:00N 40°42' W 074°07'0 0.7
2017-Dec-15 10:30N 40°42' W 074°07'3 6.5
2017-Dec-15 10:00N 40°39' W 074°09'3 6.1
2017-Dec-15 09:30N 40°39' W 074°05'3 5.0
2017-Dec-15 09:00N 40°40' W 074°02'0 0.1
2017-Dec-15 08:30N 40°40' W 074°02'0 0.1
2017-Dec-15 08:00N 40°40' W 074°02'0 0.0
2017-Dec-15 07:30N 40°40' W 074°02'0 0.0
2017-Dec-15 07:00N 40°40' W 074°02'0 0.0
2017-Dec-15 06:30N 40°40' W 074°02'0 0.2
2017-Dec-15 06:01N 40°40' W 074°02'1 1.8
2017-Dec-15 05:30N 40°41' W 074°01'4 7.1
2017-Dec-15 05:00N 40°44' W 073°58'4 8.6
2017-Dec-15 04:30N 40°47' W 073°55'1 2.0
2017-Dec-15 04:00N 40°48' W 073°54'0 0.0
2017-Dec-15 02:30N 40°48' W 073°54'0 0.0
2017-Dec-15 00:50N 40°48' W 073°54'0 0.0
2017-Dec-15 00:26N 40°48' W 073°54'0 0.0
2017-Dec-14 18:31N 40°48' W 073°54'0 0.0
2017-Dec-14 18:00N 40°48' W 073°54'0 0.0
2017-Dec-14 17:30N 40°48' W 073°54'0 0.0
2017-Dec-14 17:00N 40°48' W 073°54'0 0.0
2017-Dec-14 16:30N 40°48' W 073°54'0 0.0
2017-Dec-14 16:00N 40°48' W 073°54'0 0.0
2017-Dec-14 14:59N 40°48' W 073°54'0 0.0
2017-Dec-14 14:30N 40°48' W 073°54'0 0.0
2017-Dec-14 14:00N 40°48' W 073°54'0 0.0
2017-Dec-14 13:30N 40°48' W 073°54'0 0.0
2017-Dec-14 12:59N 40°48' W 073°54'0 0.0
2017-Dec-14 12:30N 40°48' W 073°54'0 0.6
2017-Dec-14 12:00N 40°48' W 073°55'3 6.5
2017-Dec-14 11:30N 40°45' W 073°57'3 6.3
2017-Dec-14 11:00N 40°42' W 073°59'4 7.3
2017-Dec-14 10:30N 40°40' W 074°03'2 4.1
2017-Dec-14 10:00N 40°39' W 074°05'0 0.0
2017-Dec-14 09:30N 40°39' W 074°05'0 0.0
2017-Dec-14 09:00N 40°39' W 074°05'0 0.0
2017-Dec-14 08:30N 40°39' W 074°05'0 0.0
2017-Dec-14 08:00N 40°39' W 074°05'0 0.0
2017-Dec-14 07:30N 40°39' W 074°05'0 0.0
2017-Dec-14 07:00N 40°39' W 074°05'0 0.0
2017-Dec-14 06:30N 40°39' W 074°05'0 0.0
2017-Dec-14 06:00N 40°39' W 074°05'0 0.0
2017-Dec-14 05:30N 40°39' W 074°05'0 0.0
2017-Dec-14 05:00N 40°39' W 074°05'0 0.0
2017-Dec-14 04:30N 40°39' W 074°05'0 0.0
2017-Dec-14 04:00N 40°39' W 074°05'0 0.0
2017-Dec-14 03:30N 40°39' W 074°05'0 0.0
2017-Dec-14 03:00N 40°39' W 074°05'0 0.0
2017-Dec-14 02:30N 40°39' W 074°05'0 0.0
2017-Dec-14 02:00N 40°39' W 074°05'0 0.0
2017-Dec-14 01:30N 40°39' W 074°05'0 0.0
2017-Dec-14 01:00N 40°39' W 074°05'0 0.0
2017-Dec-14 00:30N 40°39' W 074°05'0 0.0
2017-Dec-14 00:00N 40°39' W 074°05'0 0.0
2017-Dec-13 23:30N 40°39' W 074°05'0 0.0
2017-Dec-13 23:00N 40°39' W 074°05'0 0.0
2017-Dec-13 22:30N 40°39' W 074°05'0 0.0
2017-Dec-13 22:00N 40°39' W 074°05'0 0.0
2017-Dec-13 21:30N 40°39' W 074°05'0 0.0
2017-Dec-13 21:00N 40°39' W 074°05'0 0.0
2017-Dec-13 20:30N 40°39' W 074°05'0 0.0
2017-Dec-13 20:00N 40°39' W 074°05'0 0.0
2017-Dec-13 19:30N 40°39' W 074°05'0 0.0
2017-Dec-13 19:00N 40°39' W 074°05'0 0.0
2017-Dec-13 18:30N 40°39' W 074°05'2 3.8
2017-Dec-13 18:00N 40°39' W 074°03'2 4.4
2017-Dec-13 17:31N 40°40' W 074°00'0 0.0
2017-Dec-13 17:00N 40°40' W 074°00'0 0.0
2017-Dec-13 16:30N 40°40' W 074°00'0 0.0
2017-Dec-13 16:00N 40°40' W 074°00'0 0.0
2017-Dec-13 15:30N 40°40' W 074°00'0 0.0
2017-Dec-13 15:00N 40°40' W 074°00'0 0.0
2017-Dec-13 14:30N 40°40' W 074°00'0 0.0
2017-Dec-13 14:00N 40°40' W 074°00'1 2.6
2017-Dec-13 13:31N 40°41' W 074°00'0 0.4
2017-Dec-13 13:00N 40°41' W 074°00'0 0.0
2017-Dec-13 12:30N 40°41' W 074°00'0 0.0
2017-Dec-13 12:00N 40°41' W 074°00'0 0.0
2017-Dec-13 11:30N 40°41' W 074°00'0 0.1
2017-Dec-13 11:01N 40°41' W 074°00'3 6.7
2017-Dec-13 10:30N 40°40' W 074°04'1 1.9
2017-Dec-13 10:00N 40°39' W 074°05'0 0.0
2017-Dec-13 09:30N 40°39' W 074°05'0 0.8
2017-Dec-13 09:00N 40°39' W 074°05'2 3.5
2017-Dec-13 08:30N 40°39' W 074°02'0 0.0
2017-Dec-13 08:00N 40°39' W 074°02'0 0.0
2017-Dec-13 07:30N 40°39' W 074°02'0 0.0
2017-Dec-13 07:00N 40°39' W 074°02'0 0.0
2017-Dec-13 06:30N 40°39' W 074°02'0 0.0
2017-Dec-13 06:00N 40°39' W 074°02'0 0.0
2017-Dec-13 05:30N 40°39' W 074°02'0 0.2
2017-Dec-13 05:00N 40°39' W 074°02'3 6.0
2017-Dec-13 04:30N 40°42' W 074°00'5 9.5
2017-Dec-13 04:00N 40°46' W 073°57'3 5.7
2017-Dec-13 03:30N 40°48' W 073°54'0 0.0
2017-Dec-13 03:00N 40°48' W 073°54'0 0.1
2017-Dec-13 02:30N 40°48' W 073°54'0 0.0
2017-Dec-13 02:00N 40°48' W 073°54'0 0.0
2017-Dec-13 01:30N 40°48' W 073°54'0 0.0
2017-Dec-13 01:00N 40°48' W 073°54'0 0.0
2017-Dec-13 00:30N 40°48' W 073°54'0 0.0
2017-Dec-12 23:59N 40°48' W 073°54'0 0.0
2017-Dec-12 23:30N 40°48' W 073°54'0 0.0
2017-Dec-12 22:59N 40°48' W 073°54'0 0.0
2017-Dec-12 22:25N 40°48' W 073°54'0 0.0
2017-Dec-12 21:59N 40°48' W 073°54'0 0.0
2017-Dec-12 21:30N 40°48' W 073°54'0 0.0
2017-Dec-12 21:00N 40°48' W 073°54'0 0.0
2017-Dec-12 20:24N 40°48' W 073°54'2 3.5
2017-Dec-12 19:56N 40°50' W 073°54'2 1.2
2017-Dec-12 18:31N 40°48' W 073°54'0 0.0
2017-Dec-12 18:30N 40°48' W 073°54'0 0.0
2017-Dec-12 18:00N 40°48' W 073°54'0 0.0
2017-Dec-12 17:25N 40°48' W 073°54'0 0.0
2017-Dec-12 16:45N 40°48' W 073°54'1 4.8
2017-Dec-12 16:29N 40°47' W 073°55'3 6.6
2017-Dec-12 16:00N 40°45' W 073°58'3 5.4
2017-Dec-12 15:30N 40°42' W 073°60'3 6.1
2017-Dec-12 15:00N 40°40' W 074°02'3 6.2
2017-Dec-12 14:30N 40°39' W 074°06'0 0.8
2017-Dec-12 14:00N 40°39' W 074°07'0 0.0
2017-Dec-12 13:30N 40°39' W 074°07'0 0.0
2017-Dec-12 13:00N 40°39' W 074°07'0 0.0
2017-Dec-12 12:30N 40°39' W 074°07'0 0.0
2017-Dec-12 12:00N 40°39' W 074°07'0 0.0
2017-Dec-12 11:30N 40°39' W 074°07'0 0.0
2017-Dec-12 11:00N 40°39' W 074°07'0 0.0
2017-Dec-12 10:30N 40°39' W 074°07'0 0.0
2017-Dec-12 10:00N 40°39' W 074°07'0 0.0
2017-Dec-12 09:30N 40°39' W 074°07'0 0.0
2017-Dec-12 09:00N 40°39' W 074°07'0 0.0
2017-Dec-12 08:30N 40°39' W 074°07'0 0.0
2017-Dec-12 08:00N 40°39' W 074°07'0 0.0
2017-Dec-12 07:30N 40°39' W 074°07'0 0.0
2017-Dec-12 07:00N 40°39' W 074°07'0 0.0
2017-Dec-12 06:30N 40°39' W 074°07'0 0.0
2017-Dec-12 06:00N 40°39' W 074°07'0 0.0
2017-Dec-12 05:30N 40°39' W 074°07'0 0.0
2017-Dec-12 05:00N 40°39' W 074°07'0 0.0
2017-Dec-12 04:30N 40°39' W 074°07'0 0.0
2017-Dec-12 04:00N 40°39' W 074°07'0 0.0
2017-Dec-12 03:30N 40°39' W 074°07'0 0.0
2017-Dec-12 03:00N 40°39' W 074°07'0 0.0
2017-Dec-12 02:30N 40°39' W 074°07'0 0.0
2017-Dec-12 02:00N 40°39' W 074°07'0 0.0
2017-Dec-12 01:30N 40°39' W 074°07'0 0.0
2017-Dec-12 01:00N 40°39' W 074°07'0 0.0
2017-Dec-12 00:30N 40°39' W 074°07'0 0.0
2017-Dec-12 00:00N 40°39' W 074°07'0 0.0
2017-Dec-11 23:30N 40°39' W 074°07'0 0.0
2017-Dec-11 23:00N 40°39' W 074°07'0 0.0
2017-Dec-11 22:30N 40°39' W 074°07'0 0.0
2017-Dec-11 22:00N 40°39' W 074°07'0 0.0
2017-Dec-11 21:30N 40°39' W 074°07'0 0.0
2017-Dec-11 21:00N 40°39' W 074°07'0 0.0
2017-Dec-11 20:30N 40°39' W 074°07'0 0.0
2017-Dec-11 20:00N 40°39' W 074°07'0 0.0
2017-Dec-11 19:30N 40°39' W 074°07'3 5.7
2017-Dec-11 19:00N 40°39' W 074°03'0 0.1
2017-Dec-11 18:30N 40°39' W 074°03'0 0.0
2017-Dec-11 18:00N 40°39' W 074°03'0 0.0
2017-Dec-11 17:30N 40°39' W 074°03'1 2.6
2017-Dec-11 17:00N 40°40' W 074°03'4 7.4
2017-Dec-11 16:30N 40°43' W 073°59'4 7.7
2017-Dec-11 15:59N 40°46' W 073°57'2 5.0
2017-Dec-11 15:29N 40°48' W 073°54'0 0.0
2017-Dec-11 14:57N 40°48' W 073°54'0 0.0
2017-Dec-11 14:27N 40°48' W 073°54'0 0.0
2017-Dec-11 13:54N 40°48' W 073°54'0 0.0
2017-Dec-11 13:21N 40°48' W 073°54'0 0.0
2017-Dec-11 12:55N 40°48' W 073°54'0 0.0
2017-Dec-11 12:29N 40°48' W 073°54'0 0.0
2017-Dec-11 12:00N 40°48' W 073°54'0 0.0
2017-Dec-11 11:28N 40°48' W 073°54'0 0.0
2017-Dec-11 10:48N 40°48' W 073°54'0 0.0
2017-Dec-11 10:28N 40°48' W 073°54'0 0.0
2017-Dec-11 09:59N 40°48' W 073°54'0 0.0
2017-Dec-11 09:30N 40°48' W 073°54'0 0.0
2017-Dec-11 09:00N 40°48' W 073°54'0 0.0
2017-Dec-11 08:22N 40°48' W 073°54'0 0.0
2017-Dec-11 07:53N 40°48' W 073°54'0 0.0
2017-Dec-11 07:03N 40°48' W 073°54'0 0.0
2017-Dec-11 05:43N 40°48' W 073°54'0 0.0
2017-Dec-11 05:23N 40°48' W 073°54'0 0.0
2017-Dec-11 04:58N 40°48' W 073°54'0 0.0
2017-Dec-11 04:27N 40°48' W 073°54'0 0.0
2017-Dec-11 03:13N 40°48' W 073°54'0 1.5
2017-Dec-11 03:00N 40°48' W 073°55'3 6.7
2017-Dec-11 02:30N 40°45' W 073°58'3 6.0
2017-Dec-11 02:00N 40°42' W 073°59'3 5.9
2017-Dec-11 01:30N 40°41' W 074°02'3 5.1
2017-Dec-11 01:00N 40°39' W 074°05'3 5.7
2017-Dec-11 00:30N 40°39' W 074°08'3 5.2
2017-Dec-10 23:59N 40°38' W 074°12'2 4.1
2017-Dec-10 23:30N 40°36' W 074°12'0 0.2
2017-Dec-10 23:00N 40°36' W 074°12'0 0.0
2017-Dec-10 22:29N 40°36' W 074°12'0 0.0
2017-Dec-10 21:58N 40°36' W 074°12'0 0.0
2017-Dec-10 21:29N 40°36' W 074°12'0 0.0
2017-Dec-10 21:00N 40°36' W 074°12'0 0.0
2017-Dec-10 20:30N 40°36' W 074°12'0 0.0
2017-Dec-10 20:00N 40°36' W 074°12'0 0.0
2017-Dec-10 19:29N 40°36' W 074°12'0 0.0
2017-Dec-10 19:00N 40°36' W 074°12'0 0.0
2017-Dec-10 18:30N 40°36' W 074°12'0 0.0
2017-Dec-10 18:00N 40°36' W 074°12'3 6.4
2017-Dec-10 17:30N 40°39' W 074°10'4 9.3
2017-Dec-10 17:00N 40°39' W 074°04'3 6.1
2017-Dec-10 16:30N 40°40' W 074°00'0 0.0
2017-Dec-10 16:00N 40°40' W 074°00'0 0.0
2017-Dec-10 15:30N 40°40' W 074°00'0 0.0
2017-Dec-10 15:00N 40°40' W 074°00'0 0.0
2017-Dec-10 14:30N 40°40' W 074°00'0 0.0
2017-Dec-10 14:00N 40°40' W 074°00'0 0.0
2017-Dec-10 13:30N 40°40' W 074°00'0 0.0
2017-Dec-10 13:00N 40°40' W 074°00'0 0.0
2017-Dec-10 12:30N 40°40' W 074°00'0 0.0
2017-Dec-10 12:00N 40°40' W 074°00'0 0.0
2017-Dec-10 11:30N 40°40' W 074°00'0 0.0
2017-Dec-10 11:00N 40°40' W 074°00'0 0.0
2017-Dec-10 10:30N 40°40' W 074°00'2 4.7
2017-Dec-10 10:00N 40°39' W 074°03'5 9.4
2017-Dec-10 09:31N 40°39' W 074°09'3 6.1
2017-Dec-10 09:00N 40°37' W 074°12'1 1.2
2017-Dec-10 08:30N 40°36' W 074°12'1 2.7
2017-Dec-10 07:59N 40°38' W 074°12'3 6.6
2017-Dec-10 07:30N 40°39' W 074°08'3 6.7
2017-Dec-10 07:01N 40°39' W 074°04'4 8.1
2017-Dec-10 06:30N 40°42' W 074°00'3 5.8
2017-Dec-10 06:00N 40°45' W 073°58'3 5.5
2017-Dec-10 05:30N 40°47' W 073°56'3 5.1
2017-Dec-10 04:59N 40°48' W 073°53'3 7.0
2017-Dec-10 04:30N 40°48' W 073°48'3 6.8
2017-Dec-10 03:59N 40°51' W 073°45'49 2.4
2017-Dec-09 07:37N 41°12' W 072°47'1 8.7
2017-Dec-09 07:30N 41°12' W 072°45'4 9.2
2017-Dec-09 07:00N 41°11' W 072°39'5 9.3
2017-Dec-09 06:30N 41°11' W 072°33'510.1
2017-Dec-09 06:00N 41°12' W 072°27'510.4
2017-Dec-09 05:30N 41°13' W 072°20'510.4
2017-Dec-09 05:00N 41°15' W 072°13'610.0
2017-Dec-09 04:27N 41°16' W 072°06'2 0.2
2017-Dec-08 18:03N 41°15' W 072°09'1 6.6
2017-Dec-08 17:58N 41°15' W 072°09'3 5.9
2017-Dec-08 17:30N 41°14' W 072°13'3 5.5
2017-Dec-08 17:00N 41°13' W 072°16'3 5.3
2017-Dec-08 16:30N 41°12' W 072°19'3 5.2
2017-Dec-08 16:00N 41°12' W 072°23'3 5.4
2017-Dec-08 15:30N 41°11' W 072°26'3 6.8
2017-Dec-08 15:00N 41°10' W 072°31'4 7.9
2017-Dec-08 14:30N 41°10' W 072°36'4 8.4
2017-Dec-08 14:00N 41°10' W 072°41'53 2.9
2017-Dec-07 19:39N 40°50' W 073°46'1 5.2
2017-Dec-07 19:30N 40°49' W 073°47'3 5.1
2017-Dec-07 19:00N 40°48' W 073°50'3 6.4
2017-Dec-07 18:30N 40°48' W 073°54'3 5.3
2017-Dec-07 17:56N 40°46' W 073°57'2 5.3
2017-Dec-07 17:30N 40°44' W 073°58'4 7.6
2017-Dec-07 17:00N 40°41' W 074°01'4 7.8
2017-Dec-07 16:30N 40°39' W 074°06'1 2.0
2017-Dec-07 16:00N 40°39' W 074°07'0 0.0
2017-Dec-07 15:30N 40°39' W 074°07'0 0.1
2017-Dec-07 15:00N 40°39' W 074°07'0 0.1
2017-Dec-07 14:30N 40°39' W 074°07'2 4.2
2017-Dec-07 14:01N 40°39' W 074°04'3 6.6
2017-Dec-07 13:30N 40°40' W 074°00'0 0.0
2017-Dec-07 13:00N 40°40' W 074°00'0 0.0
2017-Dec-07 12:30N 40°40' W 074°00'0 0.0
2017-Dec-07 12:00N 40°40' W 074°00'0 0.0
2017-Dec-07 11:30N 40°40' W 074°00'0 0.0
2017-Dec-07 11:00N 40°40' W 074°00'0 0.0
2017-Dec-07 10:30N 40°40' W 074°00'0 0.0
2017-Dec-07 10:00N 40°40' W 074°00'0 0.0
2017-Dec-07 09:30N 40°40' W 074°00'0 0.0
2017-Dec-07 09:00N 40°40' W 074°00'0 0.0
2017-Dec-07 08:30N 40°40' W 074°00'0 0.0
2017-Dec-07 08:00N 40°40' W 074°00'0 0.0
2017-Dec-07 07:30N 40°40' W 074°00'0 0.0
2017-Dec-07 07:00N 40°40' W 074°00'0 0.0
2017-Dec-07 06:30N 40°40' W 074°00'0 0.0
2017-Dec-07 06:00N 40°40' W 074°00'0 0.0
2017-Dec-07 05:30N 40°40' W 074°00'0 0.0
2017-Dec-07 05:01N 40°40' W 074°00'4 7.3
2017-Dec-07 04:30N 40°39' W 074°05'2 3.4
2017-Dec-07 04:00N 40°39' W 074°07'0 0.6
2017-Dec-07 03:30N 40°39' W 074°07'3 6.8
2017-Dec-07 03:00N 40°40' W 074°03'3 5.5
2017-Dec-07 02:30N 40°43' W 074°01'4 7.5
2017-Dec-07 02:00N 40°47' W 073°60'3 7.2
2017-Dec-07 01:30N 40°50' W 073°58'4 7.3
2017-Dec-07 01:00N 40°53' W 073°56'4 7.2
2017-Dec-07 00:28N 40°57' W 073°54'  

Dump ship's entire track history